EDT,Max TemperatureF,Mean TemperatureF,Min TemperatureF,Max Dew PointF,MeanDew PointF,Min DewpointF,Max Humidity, Mean Humidity, Min Humidity, Max Sea Level PressureIn, Mean Sea Level PressureIn, Min Sea Level PressureIn, Max VisibilityMiles, Mean VisibilityMiles, Min VisibilityMiles, Max Wind SpeedMPH, Mean Wind SpeedMPH, Max Gust SpeedMPH,PrecipitationIn, CloudCover, Events, WindDirDegrees
2013-3-1,59,52,46,39,36,34,76,56,42,30.01,29.98,29.93,10,10,10,15,6,18,0.00,0,,282
2013-3-2,53,44,35,41,34,32,100,67,44,30.03,29.99,29.94,10,10,7,20,7,29,0.00,3,,269
2013-3-3,50,42,33,34,31,28,93,68,43,30.13,30.04,30.00,10,10,10,21,7,26,0.00,2,,283
2013-3-4,64,48,32,45,33,21,93,63,23,30.23,30.16,30.12,10,10,10,10,4,17,0.00,0,,271
2013-3-5,78,60,42,61,47,37,88,57,27,30.18,30.03,29.84,10,10,7,24,8,31,0.00,2,,217
2013-3-6,64,54,44,61,34,27,88,53,35,30.16,30.00,29.85,10,10,10,22,13,36,0.00,0,,289
2013-3-7,64,50,35,45,37,32,100,67,34,30.25,30.21,30.15,10,10,2,10,4,,0.00,0,,11
2013-3-8,62,50,37,50,43,37,100,79,48,30.29,30.23,30.18,10,7,0,13,3,18,0.00,0,,77
2013-3-9,64,50,35,50,42,34,100,75,36,30.33,30.28,30.23,10,7,0,14,3,20,0.00,0,,68
2013-3-10,73,58,42,59,52,43,100,82,53,30.26,30.21,30.17,10,8,0,14,4,18,0.00,2,,68
2013-3-11,77,65,53,63,58,52,100,76,50,30.18,30.04,29.91,10,10,7,16,7,23,0.00,2,,139
2013-3-12,69,64,59,68,59,46,100,80,49,30.03,29.91,29.85,10,9,2,20,9,26,0.00,5,,232
2013-3-13,71,58,46,45,36,30,81,46,23,30.20,30.12,30.03,10,10,10,17,6,24,0.00,0,,290
2013-3-14,62,52,42,41,32,27,93,50,27,30.34,30.26,30.18,10,10,10,10,5,23,0.00,0,,335
2013-3-15,75,56,37,52,41,34,100,64,24,30.28,30.20,30.11,10,10,1,13,3,18,0.00,0,,263
2013-3-16,82,68,53,52,46,43,82,49,26,30.14,30.07,29.98,10,10,10,21,11,28,0.00,0,,246
2013-3-17,80,68,55,61,54,46,100,66,32,30.11,30.06,30.00,10,10,10,14,8,18,0.00,2,,212
2013-3-18,78,70,62,64,62,59,100,81,61,30.07,29.99,29.87,10,10,3,20,2,32,0.00,6,,146
2013-3-19,73,66,60,63,61,59,100,88,65,30.01,29.96,29.81,10,10,4,18,6,23,0.00,4,Thunderstorm,263
2013-3-20,,,,,,,,,,,,,,,,,,,,,,
2013-3-21,66,54,42,36,31,27,76,39,23,29.97,29.92,29.87,10,10,10,17,10,28,0.00,0,,285
2013-3-22,64,53,42,52,39,27,88,58,39,30.10,30.04,29.97,10,10,10,9,3,,0.00,5,,58
2013-3-23,71,61,51,68,57,48,100,90,78,30.05,29.93,29.82,10,9,4,20,6,24,0.00,7,Thunderstorm,64
2013-3-24,87,73,59,73,64,55,100,81,35,29.84,29.61,29.50,10,9,3,20,10,29,0.00,6,Thunderstorm,204
2013-3-25,64,57,50,61,38,25,100,51,25,30.03,29.84,29.63,10,10,10,25,11,34,0.00,1,,281
2013-3-26,57,47,37,36,31,27,87,54,36,30.27,30.13,30.04,10,10,10,21,7,28,0.00,1,,289
2013-3-27,62,50,37,39,33,28,87,59,32,30.32,30.27,30.22,10,10,10,10,4,17,0.00,0,,284
2013-3-28,68,52,37,46,37,30,93,62,24,30.33,30.28,30.22,10,10,7,9,3,17,0.00,0,,305
2013-3-29,71,56,41,50,43,32,100,69,23,30.35,30.29,30.23,10,9,0,13,2,16,0.00,0,,16
2013-3-30,78,64,50,55,47,36,100,56,21,30.26,30.19,30.11,10,10,5,13,5,18,0.00,0,,205
2013-3-31,82,71,60,57,53,45,72,54,37,30.13,30.05,29.95,10,10,10,18,9,26,0.00,3,Thunderstorm,217